sensor_id;sensor_type;location;lat;lon;timestamp;P1;durP1;ratioP1;P2;durP2;ratioP2
30571;SDS011;17348;50.948;10.696;2023-05-10T00:00:04;3.05;;;2.10;;
30571;SDS011;17348;50.948;10.696;2023-05-10T00:03:07;7.03;;;2.53;;
30571;SDS011;17348;50.948;10.696;2023-05-10T00:06:09;11.38;;;2.45;;
30571;SDS011;17348;50.948;10.696;2023-05-10T00:09:12;6.25;;;2.60;;
30571;SDS011;17348;50.948;10.696;2023-05-10T00:12:16;11.02;;;3.05;;
30571;SDS011;17348;50.948;10.696;2023-05-10T00:15:18;3.60;;;2.22;;
30571;SDS011;17348;50.948;10.696;2023-05-10T00:18:21;6.40;;;2.30;;
30571;SDS011;17348;50.948;10.696;2023-05-10T00:21:23;7.90;;;2.60;;
30571;SDS011;17348;50.948;10.696;2023-05-10T00:24:25;4.72;;;2.63;;
30571;SDS011;17348;50.948;10.696;2023-05-10T00:27:29;9.55;;;2.33;;
30571;SDS011;17348;50.948;10.696;2023-05-10T00:30:32;5.55;;;2.42;;
30571;SDS011;17348;50.948;10.696;2023-05-10T00:33:34;3.70;;;2.28;;
30571;SDS011;17348;50.948;10.696;2023-05-10T00:36:36;4.43;;;2.78;;
30571;SDS011;17348;50.948;10.696;2023-05-10T00:39:39;8.23;;;2.15;;
30571;SDS011;17348;50.948;10.696;2023-05-10T00:42:42;6.05;;;2.38;;
30571;SDS011;17348;50.948;10.696;2023-05-10T00:45:45;8.63;;;2.70;;
30571;SDS011;17348;50.948;10.696;2023-05-10T00:48:47;2.83;;;2.22;;
30571;SDS011;17348;50.948;10.696;2023-05-10T00:51:50;7.57;;;3.20;;
30571;SDS011;17348;50.948;10.696;2023-05-10T00:54:52;11.20;;;2.75;;
30571;SDS011;17348;50.948;10.696;2023-05-10T00:57:57;7.00;;;2.78;;
30571;SDS011;17348;50.948;10.696;2023-05-10T01:00:59;5.30;;;2.85;;
30571;SDS011;17348;50.948;10.696;2023-05-10T01:04:03;4.82;;;2.88;;
30571;SDS011;17348;50.948;10.696;2023-05-10T01:07:05;4.50;;;1.85;;
30571;SDS011;17348;50.948;10.696;2023-05-10T01:10:08;4.93;;;2.72;;
30571;SDS011;17348;50.948;10.696;2023-05-10T01:13:13;6.85;;;2.72;;
30571;SDS011;17348;50.948;10.696;2023-05-10T01:16:20;4.43;;;2.90;;
30571;SDS011;17348;50.948;10.696;2023-05-10T01:19:23;3.33;;;2.30;;
30571;SDS011;17348;50.948;10.696;2023-05-10T01:22:33;3.13;;;2.35;;
30571;SDS011;17348;50.948;10.696;2023-05-10T01:26:14;10.60;;;2.70;;
30571;SDS011;17348;50.948;10.696;2023-05-10T01:30:01;4.57;;;2.75;;
30571;SDS011;17348;50.948;10.696;2023-05-10T01:33:17;5.70;;;2.40;;
30571;SDS011;17348;50.948;10.696;2023-05-10T01:36:22;6.20;;;3.25;;
30571;SDS011;17348;50.948;10.696;2023-05-10T01:39:32;7.38;;;2.67;;
30571;SDS011;17348;50.948;10.696;2023-05-10T01:42:43;8.93;;;2.75;;
30571;SDS011;17348;50.948;10.696;2023-05-10T01:45:52;4.87;;;2.97;;
30571;SDS011;17348;50.948;10.696;2023-05-10T01:49:03;6.03;;;3.65;;
30571;SDS011;17348;50.948;10.696;2023-05-10T01:52:10;10.63;;;3.47;;
30571;SDS011;17348;50.948;10.696;2023-05-10T01:55:16;5.43;;;3.05;;
30571;SDS011;17348;50.948;10.696;2023-05-10T01:58:22;11.82;;;4.15;;
30571;SDS011;17348;50.948;10.696;2023-05-10T02:01:29;6.65;;;3.65;;
30571;SDS011;17348;50.948;10.696;2023-05-10T02:04:33;7.13;;;3.53;;
30571;SDS011;17348;50.948;10.696;2023-05-10T02:07:38;10.40;;;3.42;;
30571;SDS011;17348;50.948;10.696;2023-05-10T02:10:42;4.70;;;3.47;;
30571;SDS011;17348;50.948;10.696;2023-05-10T02:13:46;8.57;;;4.25;;
30571;SDS011;17348;50.948;10.696;2023-05-10T02:16:50;9.38;;;4.00;;
30571;SDS011;17348;50.948;10.696;2023-05-10T02:19:57;13.55;;;3.90;;
30571;SDS011;17348;50.948;10.696;2023-05-10T02:23:01;9.43;;;3.83;;
30571;SDS011;17348;50.948;10.696;2023-05-10T02:26:04;7.18;;;4.03;;
30571;SDS011;17348;50.948;10.696;2023-05-10T02:29:08;9.98;;;4.65;;
30571;SDS011;17348;50.948;10.696;2023-05-10T02:32:12;8.15;;;3.55;;
30571;SDS011;17348;50.948;10.696;2023-05-10T02:35:18;7.65;;;4.45;;
30571;SDS011;17348;50.948;10.696;2023-05-10T02:38:21;8.52;;;4.03;;
30571;SDS011;17348;50.948;10.696;2023-05-10T02:41:25;7.13;;;4.65;;
30571;SDS011;17348;50.948;10.696;2023-05-10T02:44:29;8.77;;;4.80;;
30571;SDS011;17348;50.948;10.696;2023-05-10T02:47:33;8.52;;;4.88;;
30571;SDS011;17348;50.948;10.696;2023-05-10T02:50:37;11.23;;;4.38;;
30571;SDS011;17348;50.948;10.696;2023-05-10T02:53:43;9.60;;;5.55;;
30571;SDS011;17348;50.948;10.696;2023-05-10T02:56:51;16.23;;;4.60;;
30571;SDS011;17348;50.948;10.696;2023-05-10T02:59:58;8.38;;;5.32;;
30571;SDS011;17348;50.948;10.696;2023-05-10T03:03:00;9.02;;;5.63;;
30571;SDS011;17348;50.948;10.696;2023-05-10T03:06:04;7.93;;;4.68;;
30571;SDS011;17348;50.948;10.696;2023-05-10T03:09:07;8.25;;;5.40;;
30571;SDS011;17348;50.948;10.696;2023-05-10T03:12:13;8.77;;;5.07;;
30571;SDS011;17348;50.948;10.696;2023-05-10T03:15:22;13.77;;;5.63;;
30571;SDS011;17348;50.948;10.696;2023-05-10T03:18:33;9.60;;;5.53;;
30571;SDS011;17348;50.948;10.696;2023-05-10T03:24:51;9.07;;;5.47;;
30571;SDS011;17348;50.948;10.696;2023-05-10T03:27:57;12.82;;;5.32;;
30571;SDS011;17348;50.948;10.696;2023-05-10T03:31:02;11.85;;;6.35;;
30571;SDS011;17348;50.948;10.696;2023-05-10T03:34:06;9.05;;;5.43;;
30571;SDS011;17348;50.948;10.696;2023-05-10T03:37:10;11.65;;;6.05;;
30571;SDS011;17348;50.948;10.696;2023-05-10T03:40:13;10.13;;;5.47;;
30571;SDS011;17348;50.948;10.696;2023-05-10T03:43:15;10.93;;;5.57;;
30571;SDS011;17348;50.948;10.696;2023-05-10T03:46:18;11.48;;;5.40;;
30571;SDS011;17348;50.948;10.696;2023-05-10T03:49:20;9.07;;;5.90;;
30571;SDS011;17348;50.948;10.696;2023-05-10T03:52:25;9.38;;;6.10;;
30571;SDS011;17348;50.948;10.696;2023-05-10T03:55:27;9.85;;;6.25;;
30571;SDS011;17348;50.948;10.696;2023-05-10T03:58:30;13.35;;;6.15;;
30571;SDS011;17348;50.948;10.696;2023-05-10T04:01:32;13.45;;;6.15;;
30571;SDS011;17348;50.948;10.696;2023-05-10T04:04:34;13.75;;;6.80;;
30571;SDS011;17348;50.948;10.696;2023-05-10T04:07:38;12.02;;;6.63;;
30571;SDS011;17348;50.948;10.696;2023-05-10T04:10:40;19.73;;;6.55;;
30571;SDS011;17348;50.948;10.696;2023-05-10T04:13:42;13.43;;;6.57;;
30571;SDS011;17348;50.948;10.696;2023-05-10T04:16:45;11.90;;;6.28;;
30571;SDS011;17348;50.948;10.696;2023-05-10T04:19:47;11.95;;;6.05;;
30571;SDS011;17348;50.948;10.696;2023-05-10T04:22:51;11.43;;;6.03;;
30571;SDS011;17348;50.948;10.696;2023-05-10T04:25:58;8.73;;;5.68;;
30571;SDS011;17348;50.948;10.696;2023-05-10T04:29:01;7.60;;;4.82;;
30571;SDS011;17348;50.948;10.696;2023-05-10T04:32:04;15.45;;;5.90;;
30571;SDS011;17348;50.948;10.696;2023-05-10T04:35:06;9.48;;;6.05;;
30571;SDS011;17348;50.948;10.696;2023-05-10T04:38:11;12.80;;;6.10;;
30571;SDS011;17348;50.948;10.696;2023-05-10T04:41:14;12.18;;;4.97;;
30571;SDS011;17348;50.948;10.696;2023-05-10T04:44:16;12.18;;;6.05;;
30571;SDS011;17348;50.948;10.696;2023-05-10T04:47:18;14.95;;;6.22;;
30571;SDS011;17348;50.948;10.696;2023-05-10T04:50:21;13.40;;;6.90;;
30571;SDS011;17348;50.948;10.696;2023-05-10T04:53:24;12.55;;;7.43;;
30571;SDS011;17348;50.948;10.696;2023-05-10T04:56:27;11.10;;;5.57;;
30571;SDS011;17348;50.948;10.696;2023-05-10T04:59:29;12.38;;;5.30;;
30571;SDS011;17348;50.948;10.696;2023-05-10T05:02:31;18.52;;;6.80;;
30571;SDS011;17348;50.948;10.696;2023-05-10T05:05:34;8.73;;;5.38;;
30571;SDS011;17348;50.948;10.696;2023-05-10T05:08:37;11.63;;;4.90;;
30571;SDS011;17348;50.948;10.696;2023-05-10T05:11:40;10.27;;;4.97;;
30571;SDS011;17348;50.948;10.696;2023-05-10T05:14:44;12.63;;;5.68;;
30571;SDS011;17348;50.948;10.696;2023-05-10T05:17:46;8.65;;;4.70;;
30571;SDS011;17348;50.948;10.696;2023-05-10T05:20:49;6.72;;;4.22;;
30571;SDS011;17348;50.948;10.696;2023-05-10T05:23:52;9.20;;;4.40;;
30571;SDS011;17348;50.948;10.696;2023-05-10T05:26:54;7.60;;;4.18;;
30571;SDS011;17348;50.948;10.696;2023-05-10T05:29:57;5.50;;;3.95;;
30571;SDS011;17348;50.948;10.696;2023-05-10T05:32:59;8.85;;;4.20;;
30571;SDS011;17348;50.948;10.696;2023-05-10T05:36:02;11.18;;;4.35;;
30571;SDS011;17348;50.948;10.696;2023-05-10T05:39:07;6.63;;;3.65;;
30571;SDS011;17348;50.948;10.696;2023-05-10T05:42:09;6.95;;;3.47;;
30571;SDS011;17348;50.948;10.696;2023-05-10T05:45:12;6.03;;;3.50;;
30571;SDS011;17348;50.948;10.696;2023-05-10T05:48:14;8.50;;;4.43;;
30571;SDS011;17348;50.948;10.696;2023-05-10T05:51:17;5.15;;;3.05;;
30571;SDS011;17348;50.948;10.696;2023-05-10T05:54:20;5.85;;;3.10;;
30571;SDS011;17348;50.948;10.696;2023-05-10T05:57:23;3.83;;;2.28;;
30571;SDS011;17348;50.948;10.696;2023-05-10T06:00:27;3.55;;;2.22;;
30571;SDS011;17348;50.948;10.696;2023-05-10T06:03:29;4.25;;;1.85;;
30571;SDS011;17348;50.948;10.696;2023-05-10T06:06:32;4.25;;;1.80;;
30571;SDS011;17348;50.948;10.696;2023-05-10T06:09:35;1.58;;;1.38;;
30571;SDS011;17348;50.948;10.696;2023-05-10T06:12:37;5.50;;;1.60;;
30571;SDS011;17348;50.948;10.696;2023-05-10T06:15:40;2.13;;;1.50;;
30571;SDS011;17348;50.948;10.696;2023-05-10T06:18:42;3.05;;;1.60;;
30571;SDS011;17348;50.948;10.696;2023-05-10T06:21:44;4.20;;;1.40;;
30571;SDS011;17348;50.948;10.696;2023-05-10T06:24:48;2.67;;;1.83;;
30571;SDS011;17348;50.948;10.696;2023-05-10T06:27:50;1.95;;;1.60;;
30571;SDS011;17348;50.948;10.696;2023-05-10T06:30:57;2.35;;;1.15;;
30571;SDS011;17348;50.948;10.696;2023-05-10T06:33:59;3.55;;;0.90;;
30571;SDS011;17348;50.948;10.696;2023-05-10T06:37:02;1.30;;;0.80;;
30571;SDS011;17348;50.948;10.696;2023-05-10T06:40:06;2.88;;;1.10;;
30571;SDS011;17348;50.948;10.696;2023-05-10T06:43:09;2.80;;;0.90;;
30571;SDS011;17348;50.948;10.696;2023-05-10T06:46:12;1.10;;;0.88;;
30571;SDS011;17348;50.948;10.696;2023-05-10T06:49:14;0.98;;;0.77;;
30571;SDS011;17348;50.948;10.696;2023-05-10T06:52:17;1.00;;;0.80;;
30571;SDS011;17348;50.948;10.696;2023-05-10T06:55:20;1.40;;;0.63;;
30571;SDS011;17348;50.948;10.696;2023-05-10T06:58:23;1.23;;;0.70;;
30571;SDS011;17348;50.948;10.696;2023-05-10T07:01:25;0.73;;;0.50;;
30571;SDS011;17348;50.948;10.696;2023-05-10T07:04:27;1.13;;;0.70;;
30571;SDS011;17348;50.948;10.696;2023-05-10T07:07:30;0.70;;;0.50;;
30571;SDS011;17348;50.948;10.696;2023-05-10T07:10:34;4.35;;;0.60;;
30571;SDS011;17348;50.948;10.696;2023-05-10T07:13:36;0.43;;;0.40;;
30571;SDS011;17348;50.948;10.696;2023-05-10T07:16:41;1.65;;;0.68;;
30571;SDS011;17348;50.948;10.696;2023-05-10T07:19:44;0.50;;;0.45;;
30571;SDS011;17348;50.948;10.696;2023-05-10T07:22:47;0.60;;;0.55;;
30571;SDS011;17348;50.948;10.696;2023-05-10T07:25:51;0.57;;;0.40;;
30571;SDS011;17348;50.948;10.696;2023-05-10T07:28:53;1.75;;;0.40;;
30571;SDS011;17348;50.948;10.696;2023-05-10T07:31:56;0.70;;;0.35;;
30571;SDS011;17348;50.948;10.696;2023-05-10T07:34:58;2.08;;;0.40;;
30571;SDS011;17348;50.948;10.696;2023-05-10T07:38:00;1.27;;;0.50;;
30571;SDS011;17348;50.948;10.696;2023-05-10T07:41:04;0.93;;;0.35;;
30571;SDS011;17348;50.948;10.696;2023-05-10T07:44:07;0.08;;;0.08;;
30571;SDS011;17348;50.948;10.696;2023-05-10T07:47:09;3.95;;;0.32;;
30571;SDS011;17348;50.948;10.696;2023-05-10T07:50:12;0.40;;;0.40;;
30571;SDS011;17348;50.948;10.696;2023-05-10T07:53:14;1.17;;;0.85;;
30571;SDS011;17348;50.948;10.696;2023-05-10T07:56:21;1.27;;;0.50;;
30571;SDS011;17348;50.948;10.696;2023-05-10T07:59:27;0.98;;;0.20;;
30571;SDS011;17348;50.948;10.696;2023-05-10T08:02:30;0.65;;;0.28;;
30571;SDS011;17348;50.948;10.696;2023-05-10T08:05:32;4.65;;;0.20;;
30571;SDS011;17348;50.948;10.696;2023-05-10T08:08:34;0.70;;;0.25;;
30571;SDS011;17348;50.948;10.696;2023-05-10T08:11:38;0.05;;;0.05;;
30571;SDS011;17348;50.948;10.696;2023-05-10T08:14:40;0.85;;;0.30;;
30571;SDS011;17348;50.948;10.696;2023-05-10T08:17:43;0.17;;;0.13;;
30571;SDS011;17348;50.948;10.696;2023-05-10T08:20:45;2.10;;;0.40;;
30571;SDS011;17348;50.948;10.696;2023-05-10T08:23:47;2.35;;;0.20;;
30571;SDS011;17348;50.948;10.696;2023-05-10T08:26:51;0.28;;;0.28;;
30571;SDS011;17348;50.948;10.696;2023-05-10T08:29:54;1.42;;;0.85;;
30571;SDS011;17348;50.948;10.696;2023-05-10T08:32:56;0.20;;;0.20;;
30571;SDS011;17348;50.948;10.696;2023-05-10T08:35:58;5.30;;;0.20;;
30571;SDS011;17348;50.948;10.696;2023-05-10T08:39:01;0.47;;;0.20;;
30571;SDS011;17348;50.948;10.696;2023-05-10T08:42:05;0.10;;;0.10;;
30571;SDS011;17348;50.948;10.696;2023-05-10T08:45:09;0.38;;;0.30;;
30571;SDS011;17348;50.948;10.696;2023-05-10T08:48:13;0.20;;;0.20;;
30571;SDS011;17348;50.948;10.696;2023-05-10T08:51:17;0.40;;;0.38;;
30571;SDS011;17348;50.948;10.696;2023-05-10T08:54:21;0.20;;;0.20;;
30571;SDS011;17348;50.948;10.696;2023-05-10T08:57:25;0.75;;;0.20;;
30571;SDS011;17348;50.948;10.696;2023-05-10T09:00:28;0.22;;;0.22;;
30571;SDS011;17348;50.948;10.696;2023-05-10T09:03:31;8.07;;;0.30;;
30571;SDS011;17348;50.948;10.696;2023-05-10T09:06:33;0.90;;;0.60;;
30571;SDS011;17348;50.948;10.696;2023-05-10T09:09:36;3.45;;;0.98;;
30571;SDS011;17348;50.948;10.696;2023-05-10T09:12:40;3.58;;;0.98;;
30571;SDS011;17348;50.948;10.696;2023-05-10T09:15:44;0.77;;;0.77;;
30571;SDS011;17348;50.948;10.696;2023-05-10T09:18:47;1.13;;;0.50;;
30571;SDS011;17348;50.948;10.696;2023-05-10T09:21:49;0.35;;;0.30;;
30571;SDS011;17348;50.948;10.696;2023-05-10T09:25:03;0.65;;;0.20;;
30571;SDS011;17348;50.948;10.696;2023-05-10T09:28:08;0.28;;;0.20;;
30571;SDS011;17348;50.948;10.696;2023-05-10T09:31:11;0.35;;;0.35;;
30571;SDS011;17348;50.948;10.696;2023-05-10T09:34:17;1.08;;;0.20;;
30571;SDS011;17348;50.948;10.696;2023-05-10T09:37:28;0.70;;;0.40;;
30571;SDS011;17348;50.948;10.696;2023-05-10T09:40:31;1.10;;;0.50;;
30571;SDS011;17348;50.948;10.696;2023-05-10T09:43:38;5.22;;;0.75;;
30571;SDS011;17348;50.948;10.696;2023-05-10T09:46:41;0.65;;;0.47;;
30571;SDS011;17348;50.948;10.696;2023-05-10T09:49:44;3.70;;;0.50;;
30571;SDS011;17348;50.948;10.696;2023-05-10T09:52:52;5.28;;;0.50;;
30571;SDS011;17348;50.948;10.696;2023-05-10T09:55:56;1.83;;;0.50;;
30571;SDS011;17348;50.948;10.696;2023-05-10T09:59:03;1.83;;;0.52;;
30571;SDS011;17348;50.948;10.696;2023-05-10T10:02:05;3.58;;;0.70;;
30571;SDS011;17348;50.948;10.696;2023-05-10T10:05:08;1.80;;;0.80;;
30571;SDS011;17348;50.948;10.696;2023-05-10T10:08:11;0.40;;;0.40;;
30571;SDS011;17348;50.948;10.696;2023-05-10T10:11:13;0.50;;;0.38;;
30571;SDS011;17348;50.948;10.696;2023-05-10T10:14:18;0.43;;;0.43;;
30571;SDS011;17348;50.948;10.696;2023-05-10T10:17:20;3.42;;;1.02;;
30571;SDS011;17348;50.948;10.696;2023-05-10T10:20:23;0.88;;;0.50;;
30571;SDS011;17348;50.948;10.696;2023-05-10T10:23:26;1.45;;;0.60;;
30571;SDS011;17348;50.948;10.696;2023-05-10T10:26:29;1.13;;;0.60;;
30571;SDS011;17348;50.948;10.696;2023-05-10T10:29:34;2.30;;;0.68;;
30571;SDS011;17348;50.948;10.696;2023-05-10T10:32:45;1.13;;;0.60;;
30571;SDS011;17348;50.948;10.696;2023-05-10T10:36:02;3.95;;;0.90;;
30571;SDS011;17348;50.948;10.696;2023-05-10T10:39:08;1.52;;;0.80;;
30571;SDS011;17348;50.948;10.696;2023-05-10T10:42:12;1.80;;;1.10;;
30571;SDS011;17348;50.948;10.696;2023-05-10T10:45:16;3.17;;;1.00;;
30571;SDS011;17348;50.948;10.696;2023-05-10T10:48:21;0.60;;;0.57;;
30571;SDS011;17348;50.948;10.696;2023-05-10T10:51:24;0.60;;;0.60;;
30571;SDS011;17348;50.948;10.696;2023-05-10T10:54:32;0.45;;;0.40;;
30571;SDS011;17348;50.948;10.696;2023-05-10T10:57:43;5.32;;;0.50;;
30571;SDS011;17348;50.948;10.696;2023-05-10T11:00:48;0.63;;;0.50;;
30571;SDS011;17348;50.948;10.696;2023-05-10T11:07:31;2.22;;;0.65;;
30571;SDS011;17348;50.948;10.696;2023-05-10T11:10:33;2.25;;;1.25;;
30571;SDS011;17348;50.948;10.696;2023-05-10T11:13:40;2.20;;;1.00;;
30571;SDS011;17348;50.948;10.696;2023-05-10T11:16:44;1.55;;;0.70;;
30571;SDS011;17348;50.948;10.696;2023-05-10T11:23:11;0.57;;;0.50;;
30571;SDS011;17348;50.948;10.696;2023-05-10T11:26:16;0.45;;;0.30;;
30571;SDS011;17348;50.948;10.696;2023-05-10T11:29:19;0.98;;;0.32;;
30571;SDS011;17348;50.948;10.696;2023-05-10T11:32:22;6.10;;;0.95;;
30571;SDS011;17348;50.948;10.696;2023-05-10T11:35:27;1.58;;;0.75;;
30571;SDS011;17348;50.948;10.696;2023-05-10T11:38:29;1.85;;;0.55;;
30571;SDS011;17348;50.948;10.696;2023-05-10T11:41:34;0.95;;;0.65;;
30571;SDS011;17348;50.948;10.696;2023-05-10T11:44:37;0.40;;;0.40;;
30571;SDS011;17348;50.948;10.696;2023-05-10T11:47:40;1.92;;;0.80;;
30571;SDS011;17348;50.948;10.696;2023-05-10T11:50:43;2.55;;;1.38;;
30571;SDS011;17348;50.948;10.696;2023-05-10T11:53:48;1.23;;;0.88;;
30571;SDS011;17348;50.948;10.696;2023-05-10T11:56:51;4.30;;;0.65;;
30571;SDS011;17348;50.948;10.696;2023-05-10T11:59:54;1.08;;;0.90;;
30571;SDS011;17348;50.948;10.696;2023-05-10T12:02:57;1.33;;;0.80;;
30571;SDS011;17348;50.948;10.696;2023-05-10T12:06:02;5.80;;;1.10;;
30571;SDS011;17348;50.948;10.696;2023-05-10T12:09:05;2.53;;;1.10;;
30571;SDS011;17348;50.948;10.696;2023-05-10T12:12:08;4.25;;;1.40;;
30571;SDS011;17348;50.948;10.696;2023-05-10T12:15:11;2.83;;;1.25;;
30571;SDS011;17348;50.948;10.696;2023-05-10T12:18:21;1.10;;;1.00;;
30571;SDS011;17348;50.948;10.696;2023-05-10T12:21:25;2.40;;;1.20;;
30571;SDS011;17348;50.948;10.696;2023-05-10T12:24:29;2.22;;;1.10;;
30571;SDS011;17348;50.948;10.696;2023-05-10T12:27:31;3.65;;;1.10;;
30571;SDS011;17348;50.948;10.696;2023-05-10T12:30:34;1.30;;;1.20;;
30571;SDS011;17348;50.948;10.696;2023-05-10T12:33:39;5.97;;;1.20;;
30571;SDS011;17348;50.948;10.696;2023-05-10T12:36:43;0.65;;;0.63;;
30571;SDS011;17348;50.948;10.696;2023-05-10T12:39:45;1.45;;;1.15;;
30571;SDS011;17348;50.948;10.696;2023-05-10T12:42:48;4.93;;;1.10;;
30571;SDS011;17348;50.948;10.696;2023-05-10T12:45:50;4.95;;;0.90;;
30571;SDS011;17348;50.948;10.696;2023-05-10T12:48:54;1.52;;;1.10;;
30571;SDS011;17348;50.948;10.696;2023-05-10T12:51:56;4.85;;;2.05;;
30571;SDS011;17348;50.948;10.696;2023-05-10T12:54:59;1.85;;;0.90;;
30571;SDS011;17348;50.948;10.696;2023-05-10T12:58:01;3.80;;;0.90;;
30571;SDS011;17348;50.948;10.696;2023-05-10T13:01:04;2.55;;;0.65;;
30571;SDS011;17348;50.948;10.696;2023-05-10T13:04:08;2.75;;;0.88;;
30571;SDS011;17348;50.948;10.696;2023-05-10T13:07:10;2.03;;;0.75;;
30571;SDS011;17348;50.948;10.696;2023-05-10T13:10:13;1.42;;;0.90;;
30571;SDS011;17348;50.948;10.696;2023-05-10T13:13:15;2.70;;;0.98;;
30571;SDS011;17348;50.948;10.696;2023-05-10T13:16:18;2.72;;;0.63;;
30571;SDS011;17348;50.948;10.696;2023-05-10T13:19:22;5.60;;;1.05;;
30571;SDS011;17348;50.948;10.696;2023-05-10T13:22:26;0.93;;;0.65;;
30571;SDS011;17348;50.948;10.696;2023-05-10T13:25:33;4.05;;;0.60;;
30571;SDS011;17348;50.948;10.696;2023-05-10T13:28:38;0.98;;;0.50;;
30571;SDS011;17348;50.948;10.696;2023-05-10T13:31:41;2.45;;;0.63;;
30571;SDS011;17348;50.948;10.696;2023-05-10T13:34:44;0.80;;;0.40;;
30571;SDS011;17348;50.948;10.696;2023-05-10T13:37:47;0.90;;;0.50;;
30571;SDS011;17348;50.948;10.696;2023-05-10T13:40:49;0.60;;;0.35;;
30571;SDS011;17348;50.948;10.696;2023-05-10T13:43:53;0.47;;;0.38;;
30571;SDS011;17348;50.948;10.696;2023-05-10T13:46:55;6.65;;;0.63;;
30571;SDS011;17348;50.948;10.696;2023-05-10T13:49:59;0.40;;;0.40;;
30571;SDS011;17348;50.948;10.696;2023-05-10T13:53:03;4.03;;;1.02;;
30571;SDS011;17348;50.948;10.696;2023-05-10T13:56:06;4.15;;;0.70;;
30571;SDS011;17348;50.948;10.696;2023-05-10T13:59:08;1.05;;;0.55;;
30571;SDS011;17348;50.948;10.696;2023-05-10T14:02:10;2.13;;;0.57;;
30571;SDS011;17348;50.948;10.696;2023-05-10T14:05:15;0.60;;;0.50;;
30571;SDS011;17348;50.948;10.696;2023-05-10T14:08:17;2.63;;;0.88;;
30571;SDS011;17348;50.948;10.696;2023-05-10T14:11:19;1.10;;;0.47;;
30571;SDS011;17348;50.948;10.696;2023-05-10T14:14:22;0.80;;;0.30;;
30571;SDS011;17348;50.948;10.696;2023-05-10T14:17:24;0.55;;;0.47;;
30571;SDS011;17348;50.948;10.696;2023-05-10T14:20:28;0.70;;;0.50;;
30571;SDS011;17348;50.948;10.696;2023-05-10T14:23:30;2.95;;;0.65;;
30571;SDS011;17348;50.948;10.696;2023-05-10T14:26:33;2.08;;;0.93;;
30571;SDS011;17348;50.948;10.696;2023-05-10T14:29:35;0.77;;;0.50;;
30571;SDS011;17348;50.948;10.696;2023-05-10T14:32:38;1.55;;;0.75;;
30571;SDS011;17348;50.948;10.696;2023-05-10T14:35:41;1.85;;;0.80;;
30571;SDS011;17348;50.948;10.696;2023-05-10T14:38:44;1.80;;;0.80;;
30571;SDS011;17348;50.948;10.696;2023-05-10T14:41:46;3.25;;;0.80;;
30571;SDS011;17348;50.948;10.696;2023-05-10T14:44:49;1.50;;;0.80;;
30571;SDS011;17348;50.948;10.696;2023-05-10T14:47:51;1.65;;;0.65;;
30571;SDS011;17348;50.948;10.696;2023-05-10T14:50:55;0.95;;;0.80;;
30571;SDS011;17348;50.948;10.696;2023-05-10T14:53:57;8.05;;;0.93;;
30571;SDS011;17348;50.948;10.696;2023-05-10T14:57:00;6.13;;;1.02;;
30571;SDS011;17348;50.948;10.696;2023-05-10T15:00:02;7.70;;;0.90;;
30571;SDS011;17348;50.948;10.696;2023-05-10T15:03:05;1.52;;;0.57;;
30571;SDS011;17348;50.948;10.696;2023-05-10T15:06:09;3.55;;;0.82;;
30571;SDS011;17348;50.948;10.696;2023-05-10T15:09:11;1.85;;;0.77;;
30571;SDS011;17348;50.948;10.696;2023-05-10T15:12:14;0.90;;;0.60;;
30571;SDS011;17348;50.948;10.696;2023-05-10T15:15:16;0.93;;;0.70;;
30571;SDS011;17348;50.948;10.696;2023-05-10T15:18:18;1.35;;;0.80;;
30571;SDS011;17348;50.948;10.696;2023-05-10T15:21:22;1.65;;;0.73;;
30571;SDS011;17348;50.948;10.696;2023-05-10T15:24:24;5.95;;;0.68;;
30571;SDS011;17348;50.948;10.696;2023-05-10T15:27:27;1.17;;;0.98;;
30571;SDS011;17348;50.948;10.696;2023-05-10T15:30:29;0.88;;;0.60;;
30571;SDS011;17348;50.948;10.696;2023-05-10T15:33:31;1.60;;;0.90;;
30571;SDS011;17348;50.948;10.696;2023-05-10T15:36:35;1.73;;;0.80;;
30571;SDS011;17348;50.948;10.696;2023-05-10T15:39:37;1.73;;;0.82;;
30571;SDS011;17348;50.948;10.696;2023-05-10T15:42:40;3.03;;;1.20;;
30571;SDS011;17348;50.948;10.696;2023-05-10T15:45:42;7.50;;;1.17;;
30571;SDS011;17348;50.948;10.696;2023-05-10T15:48:44;9.13;;;1.50;;
30571;SDS011;17348;50.948;10.696;2023-05-10T15:51:48;13.55;;;1.70;;
30571;SDS011;17348;50.948;10.696;2023-05-10T15:54:50;11.60;;;2.83;;
30571;SDS011;17348;50.948;10.696;2023-05-10T15:57:53;8.95;;;1.65;;
30571;SDS011;17348;50.948;10.696;2023-05-10T16:00:55;5.30;;;1.30;;
30571;SDS011;17348;50.948;10.696;2023-05-10T16:03:58;8.23;;;1.80;;
30571;SDS011;17348;50.948;10.696;2023-05-10T16:07:02;4.90;;;1.25;;
30571;SDS011;17348;50.948;10.696;2023-05-10T16:10:05;7.15;;;1.15;;
30571;SDS011;17348;50.948;10.696;2023-05-10T16:13:09;6.05;;;1.20;;
30571;SDS011;17348;50.948;10.696;2023-05-10T16:16:11;2.38;;;0.98;;
30571;SDS011;17348;50.948;10.696;2023-05-10T16:19:13;2.85;;;0.98;;
30571;SDS011;17348;50.948;10.696;2023-05-10T16:22:17;4.10;;;1.30;;
30571;SDS011;17348;50.948;10.696;2023-05-10T16:25:21;6.35;;;1.35;;
30571;SDS011;17348;50.948;10.696;2023-05-10T16:28:24;7.20;;;1.27;;
30571;SDS011;17348;50.948;10.696;2023-05-10T16:31:26;8.13;;;1.42;;
30571;SDS011;17348;50.948;10.696;2023-05-10T16:34:29;1.63;;;0.82;;
30571;SDS011;17348;50.948;10.696;2023-05-10T16:37:32;1.70;;;0.85;;
30571;SDS011;17348;50.948;10.696;2023-05-10T16:40:35;2.05;;;0.70;;
30571;SDS011;17348;50.948;10.696;2023-05-10T16:43:37;3.00;;;0.60;;
30571;SDS011;17348;50.948;10.696;2023-05-10T16:46:40;4.22;;;0.75;;
30571;SDS011;17348;50.948;10.696;2023-05-10T16:49:43;3.35;;;0.82;;
30571;SDS011;17348;50.948;10.696;2023-05-10T16:52:46;1.67;;;0.80;;
30571;SDS011;17348;50.948;10.696;2023-05-10T16:55:49;1.33;;;0.85;;
30571;SDS011;17348;50.948;10.696;2023-05-10T16:58:51;4.95;;;1.02;;
30571;SDS011;17348;50.948;10.696;2023-05-10T17:01:55;2.00;;;1.15;;
30571;SDS011;17348;50.948;10.696;2023-05-10T17:04:57;2.67;;;1.05;;
30571;SDS011;17348;50.948;10.696;2023-05-10T17:08:01;3.03;;;1.20;;
30571;SDS011;17348;50.948;10.696;2023-05-10T17:11:04;2.10;;;0.98;;
30571;SDS011;17348;50.948;10.696;2023-05-10T17:14:06;3.03;;;1.08;;
30571;SDS011;17348;50.948;10.696;2023-05-10T17:17:09;2.78;;;1.20;;
30571;SDS011;17348;50.948;10.696;2023-05-10T17:20:12;2.40;;;1.15;;
30571;SDS011;17348;50.948;10.696;2023-05-10T17:23:15;1.70;;;0.95;;
30571;SDS011;17348;50.948;10.696;2023-05-10T17:26:18;2.67;;;1.85;;
30571;SDS011;17348;50.948;10.696;2023-05-10T17:29:21;2.00;;;1.42;;
30571;SDS011;17348;50.948;10.696;2023-05-10T17:32:24;3.58;;;1.70;;
30571;SDS011;17348;50.948;10.696;2023-05-10T17:35:27;2.03;;;1.25;;
30571;SDS011;17348;50.948;10.696;2023-05-10T17:38:33;4.90;;;1.70;;
30571;SDS011;17348;50.948;10.696;2023-05-10T17:41:36;2.58;;;1.30;;
30571;SDS011;17348;50.948;10.696;2023-05-10T17:44:40;2.58;;;1.63;;
30571;SDS011;17348;50.948;10.696;2023-05-10T17:47:44;6.82;;;1.20;;
30571;SDS011;17348;50.948;10.696;2023-05-10T17:50:50;2.50;;;1.63;;
30571;SDS011;17348;50.948;10.696;2023-05-10T17:53:54;3.08;;;1.50;;
30571;SDS011;17348;50.948;10.696;2023-05-10T17:56:56;3.83;;;1.70;;
30571;SDS011;17348;50.948;10.696;2023-05-10T18:00:00;2.72;;;1.65;;
30571;SDS011;17348;50.948;10.696;2023-05-10T18:03:05;4.15;;;2.35;;
30571;SDS011;17348;50.948;10.696;2023-05-10T18:06:08;6.85;;;2.15;;
30571;SDS011;17348;50.948;10.696;2023-05-10T18:09:11;6.82;;;2.25;;
30571;SDS011;17348;50.948;10.696;2023-05-10T18:12:15;8.13;;;2.10;;
30571;SDS011;17348;50.948;10.696;2023-05-10T18:15:18;3.67;;;1.70;;
30571;SDS011;17348;50.948;10.696;2023-05-10T18:18:20;3.92;;;1.88;;